sensor_id;sensor_type;location;lat;lon;timestamp;temperature;humidity
26272;DHT22;13997;48.902;12.472;2023-02-28T00:02:08;13.70;2201.60
26272;DHT22;13997;48.902;12.472;2023-02-28T00:04:33;13.70;2201.60
26272;DHT22;13997;48.902;12.472;2023-02-28T00:06:59;13.70;2201.60
26272;DHT22;13997;48.902;12.472;2023-02-28T00:09:25;13.70;2201.60
26272;DHT22;13997;48.902;12.472;2023-02-28T00:11:50;13.70;2201.60
26272;DHT22;13997;48.902;12.472;2023-02-28T00:14:16;13.70;2201.60
26272;DHT22;13997;48.902;12.472;2023-02-28T00:16:41;13.70;2201.60
26272;DHT22;13997;48.902;12.472;2023-02-28T00:19:07;13.70;2201.60
26272;DHT22;13997;48.902;12.472;2023-02-28T00:21:33;13.70;2201.60
26272;DHT22;13997;48.902;12.472;2023-02-28T00:23:58;13.70;2201.60
26272;DHT22;13997;48.902;12.472;2023-02-28T00:26:24;13.70;2201.60
26272;DHT22;13997;48.902;12.472;2023-02-28T00:28:52;13.70;2201.60
26272;DHT22;13997;48.902;12.472;2023-02-28T00:31:18;13.70;2201.60
26272;DHT22;13997;48.902;12.472;2023-02-28T00:33:43;13.70;2201.60
26272;DHT22;13997;48.902;12.472;2023-02-28T00:36:11;13.70;2201.60
26272;DHT22;13997;48.902;12.472;2023-02-28T00:38:37;13.70;2201.60
26272;DHT22;13997;48.902;12.472;2023-02-28T00:41:03;13.70;2201.60
26272;DHT22;13997;48.902;12.472;2023-02-28T00:43:31;13.70;2201.60
26272;DHT22;13997;48.902;12.472;2023-02-28T00:45:56;38.40;2201.60
26272;DHT22;13997;48.902;12.472;2023-02-28T00:48:22;38.40;2201.60
26272;DHT22;13997;48.902;12.472;2023-02-28T00:50:49;38.40;2201.60
26272;DHT22;13997;48.902;12.472;2023-02-28T00:53:15;38.50;2201.60
26272;DHT22;13997;48.902;12.472;2023-02-28T00:55:40;38.40;2201.60
26272;DHT22;13997;48.902;12.472;2023-02-28T00:58:06;38.40;2201.60
26272;DHT22;13997;48.902;12.472;2023-02-28T01:00:31;38.50;2201.60
26272;DHT22;13997;48.902;12.472;2023-02-28T01:02:57;38.50;2201.60
26272;DHT22;13997;48.902;12.472;2023-02-28T01:05:23;38.50;2201.60
26272;DHT22;13997;48.902;12.472;2023-02-28T01:07:49;38.50;2201.60
26272;DHT22;13997;48.902;12.472;2023-02-28T01:10:14;38.50;2201.60
26272;DHT22;13997;48.902;12.472;2023-02-28T01:12:40;38.50;2201.60
26272;DHT22;13997;48.902;12.472;2023-02-28T01:15:06;38.50;2201.60
26272;DHT22;13997;48.902;12.472;2023-02-28T01:17:32;38.60;2201.60
26272;DHT22;13997;48.902;12.472;2023-02-28T01:19:57;38.60;2201.60
26272;DHT22;13997;48.902;12.472;2023-02-28T01:22:23;38.60;2201.60
26272;DHT22;13997;48.902;12.472;2023-02-28T01:24:49;38.60;2201.60
26272;DHT22;13997;48.902;12.472;2023-02-28T01:27:14;38.60;2201.60
26272;DHT22;13997;48.902;12.472;2023-02-28T01:29:40;38.60;2201.60
26272;DHT22;13997;48.902;12.472;2023-02-28T01:32:06;38.70;2201.60
26272;DHT22;13997;48.902;12.472;2023-02-28T01:34:31;38.70;2201.60
26272;DHT22;13997;48.902;12.472;2023-02-28T01:36:57;38.70;2201.60
26272;DHT22;13997;48.902;12.472;2023-02-28T01:39:24;38.60;2201.60
26272;DHT22;13997;48.902;12.472;2023-02-28T01:41:50;38.70;2201.60
26272;DHT22;13997;48.902;12.472;2023-02-28T01:47:19;38.70;2201.60
26272;DHT22;13997;48.902;12.472;2023-02-28T01:49:44;38.70;2201.60
26272;DHT22;13997;48.902;12.472;2023-02-28T01:52:11;38.70;2201.60
26272;DHT22;13997;48.902;12.472;2023-02-28T01:54:40;38.70;2201.60
26272;DHT22;13997;48.902;12.472;2023-02-28T01:57:18;38.70;2201.60
26272;DHT22;13997;48.902;12.472;2023-02-28T01:59:58;38.70;2201.60
26272;DHT22;13997;48.902;12.472;2023-02-28T02:02:26;38.80;2201.60
26272;DHT22;13997;48.902;12.472;2023-02-28T02:05:00;38.80;2201.60
26272;DHT22;13997;48.902;12.472;2023-02-28T02:07:31;38.80;2201.60
26272;DHT22;13997;48.902;12.472;2023-02-28T02:10:04;38.80;2201.60
26272;DHT22;13997;48.902;12.472;2023-02-28T02:13:02;38.80;2201.60
26272;DHT22;13997;48.902;12.472;2023-02-28T02:15:41;38.90;2201.60
26272;DHT22;13997;48.902;12.472;2023-02-28T02:32:10;38.90;2201.60
26272;DHT22;13997;48.902;12.472;2023-02-28T02:34:52;38.90;2201.60
26272;DHT22;13997;48.902;12.472;2023-02-28T02:45:15;38.90;2201.60
26272;DHT22;13997;48.902;12.472;2023-02-28T02:47:43;38.90;2201.60
26272;DHT22;13997;48.902;12.472;2023-02-28T02:50:13;38.90;2201.60
26272;DHT22;13997;48.902;12.472;2023-02-28T02:52:48;38.90;2201.60
26272;DHT22;13997;48.902;12.472;2023-02-28T02:55:17;39.00;2201.60
26272;DHT22;13997;48.902;12.472;2023-02-28T02:57:53;39.00;2201.60
26272;DHT22;13997;48.902;12.472;2023-02-28T03:00:25;39.00;2201.60
26272;DHT22;13997;48.902;12.472;2023-02-28T03:02:53;39.00;2201.60
26272;DHT22;13997;48.902;12.472;2023-02-28T03:05:34;39.00;2201.60
26272;DHT22;13997;48.902;12.472;2023-02-28T03:08:03;39.00;2201.60
26272;DHT22;13997;48.902;12.472;2023-02-28T03:10:32;39.00;2201.60
26272;DHT22;13997;48.902;12.472;2023-02-28T03:27:21;39.10;2201.60
26272;DHT22;13997;48.902;12.472;2023-02-28T03:30:06;39.00;2201.60
26272;DHT22;13997;48.902;12.472;2023-02-28T03:35:10;39.10;2201.60
26272;DHT22;13997;48.902;12.472;2023-02-28T03:37:41;39.10;2201.60
26272;DHT22;13997;48.902;12.472;2023-02-28T03:40:10;39.10;2201.60
26272;DHT22;13997;48.902;12.472;2023-02-28T03:42:41;39.10;2201.60
26272;DHT22;13997;48.902;12.472;2023-02-28T03:45:25;39.10;2201.60
26272;DHT22;13997;48.902;12.472;2023-02-28T03:47:56;39.20;2201.60
26272;DHT22;13997;48.902;12.472;2023-02-28T03:50:26;39.20;2201.60
26272;DHT22;13997;48.902;12.472;2023-02-28T03:53:14;39.10;2201.60
26272;DHT22;13997;48.902;12.472;2023-02-28T03:55:50;39.10;2201.60
26272;DHT22;13997;48.902;12.472;2023-02-28T03:58:27;39.10;2201.60
26272;DHT22;13997;48.902;12.472;2023-02-28T04:01:00;39.20;2201.60
26272;DHT22;13997;48.902;12.472;2023-02-28T04:03:36;39.20;2201.60
26272;DHT22;13997;48.902;12.472;2023-02-28T04:06:03;39.20;2201.60
26272;DHT22;13997;48.902;12.472;2023-02-28T04:08:29;39.20;2201.60
26272;DHT22;13997;48.902;12.472;2023-02-28T04:11:02;39.20;2201.60
26272;DHT22;13997;48.902;12.472;2023-02-28T04:13:29;39.20;2201.60
26272;DHT22;13997;48.902;12.472;2023-02-28T04:15:55;39.20;2201.60
26272;DHT22;13997;48.902;12.472;2023-02-28T04:18:20;39.20;2201.60
26272;DHT22;13997;48.902;12.472;2023-02-28T04:20:46;39.20;2201.60
26272;DHT22;13997;48.902;12.472;2023-02-28T04:23:11;39.20;2201.60
26272;DHT22;13997;48.902;12.472;2023-02-28T04:25:37;39.20;2201.60
26272;DHT22;13997;48.902;12.472;2023-02-28T04:28:05;39.20;2201.60
26272;DHT22;13997;48.902;12.472;2023-02-28T04:30:31;39.20;2201.60
26272;DHT22;13997;48.902;12.472;2023-02-28T04:32:58;39.20;2201.60
26272;DHT22;13997;48.902;12.472;2023-02-28T04:35:23;39.20;2201.60
26272;DHT22;13997;48.902;12.472;2023-02-28T04:37:49;39.20;2201.60
26272;DHT22;13997;48.902;12.472;2023-02-28T04:40:15;39.20;2201.60
26272;DHT22;13997;48.902;12.472;2023-02-28T04:42:40;39.20;2201.60
26272;DHT22;13997;48.902;12.472;2023-02-28T04:45:06;39.30;2201.60
26272;DHT22;13997;48.902;12.472;2023-02-28T04:47:35;39.30;2201.60
26272;DHT22;13997;48.902;12.472;2023-02-28T04:50:01;39.30;2201.60
26272;DHT22;13997;48.902;12.472;2023-02-28T04:52:27;39.30;2201.60
26272;DHT22;13997;48.902;12.472;2023-02-28T04:54:53;39.30;2201.60
26272;DHT22;13997;48.902;12.472;2023-02-28T04:57:18;39.30;2201.60
26272;DHT22;13997;48.902;12.472;2023-02-28T04:59:44;39.30;2201.60
26272;DHT22;13997;48.902;12.472;2023-02-28T05:02:09;39.30;2201.60
26272;DHT22;13997;48.902;12.472;2023-02-28T05:04:35;39.30;2201.60
26272;DHT22;13997;48.902;12.472;2023-02-28T05:07:02;39.30;2201.60
26272;DHT22;13997;48.902;12.472;2023-02-28T05:09:28;39.30;2201.60
26272;DHT22;13997;48.902;12.472;2023-02-28T05:11:54;39.30;2201.60
26272;DHT22;13997;48.902;12.472;2023-02-28T05:14:20;39.20;2201.60
26272;DHT22;13997;48.902;12.472;2023-02-28T05:16:46;39.20;2201.60
26272;DHT22;13997;48.902;12.472;2023-02-28T05:19:11;39.20;2201.60
26272;DHT22;13997;48.902;12.472;2023-02-28T05:21:41;39.30;2201.60
26272;DHT22;13997;48.902;12.472;2023-02-28T05:24:13;39.30;2201.60
26272;DHT22;13997;48.902;12.472;2023-02-28T05:26:40;39.30;2201.60
26272;DHT22;13997;48.902;12.472;2023-02-28T05:29:07;39.30;2201.60
26272;DHT22;13997;48.902;12.472;2023-02-28T05:31:33;39.30;2201.60
26272;DHT22;13997;48.902;12.472;2023-02-28T05:33:59;39.30;2201.60
26272;DHT22;13997;48.902;12.472;2023-02-28T05:36:24;39.30;2201.60
26272;DHT22;13997;48.902;12.472;2023-02-28T05:38:50;39.30;2201.60
26272;DHT22;13997;48.902;12.472;2023-02-28T05:41:17;39.30;2201.60
26272;DHT22;13997;48.902;12.472;2023-02-28T05:43:44;39.30;2201.60
26272;DHT22;13997;48.902;12.472;2023-02-28T05:46:11;39.30;2201.60
26272;DHT22;13997;48.902;12.472;2023-02-28T05:48:37;39.30;2201.60
26272;DHT22;13997;48.902;12.472;2023-02-28T05:51:04;39.30;2201.60
26272;DHT22;13997;48.902;12.472;2023-02-28T05:53:30;39.30;2201.60
26272;DHT22;13997;48.902;12.472;2023-02-28T05:55:56;39.30;2201.60
26272;DHT22;13997;48.902;12.472;2023-02-28T05:58:22;39.30;2201.60
26272;DHT22;13997;48.902;12.472;2023-02-28T06:00:48;39.30;2201.60
26272;DHT22;13997;48.902;12.472;2023-02-28T06:03:14;39.30;2201.60
26272;DHT22;13997;48.902;12.472;2023-02-28T06:05:40;39.30;2201.60
26272;DHT22;13997;48.902;12.472;2023-02-28T06:08:05;39.20;2201.60
26272;DHT22;13997;48.902;12.472;2023-02-28T06:10:33;39.20;2201.60
26272;DHT22;13997;48.902;12.472;2023-02-28T06:13:03;39.20;2201.60
26272;DHT22;13997;48.902;12.472;2023-02-28T06:15:29;39.20;2201.60
26272;DHT22;13997;48.902;12.472;2023-02-28T06:17:55;39.10;2201.60
26272;DHT22;13997;48.902;12.472;2023-02-28T06:20:24;39.10;2201.60
26272;DHT22;13997;48.902;12.472;2023-02-28T06:22:50;39.00;2201.60
26272;DHT22;13997;48.902;12.472;2023-02-28T06:25:16;39.00;2201.60
26272;DHT22;13997;48.902;12.472;2023-02-28T06:27:43;38.90;2201.60
26272;DHT22;13997;48.902;12.472;2023-02-28T06:30:10;38.90;2201.60
26272;DHT22;13997;48.902;12.472;2023-02-28T06:32:36;38.80;2201.60
26272;DHT22;13997;48.902;12.472;2023-02-28T06:35:02;38.80;2201.60
26272;DHT22;13997;48.902;12.472;2023-02-28T06:37:28;38.70;2201.60
26272;DHT22;13997;48.902;12.472;2023-02-28T06:39:54;38.60;2201.60
26272;DHT22;13997;48.902;12.472;2023-02-28T06:42:24;38.60;2201.60
26272;DHT22;13997;48.902;12.472;2023-02-28T06:44:55;38.50;2201.60
26272;DHT22;13997;48.902;12.472;2023-02-28T06:47:21;38.40;2201.60
26272;DHT22;13997;48.902;12.472;2023-02-28T06:49:47;13.70;2201.60
26272;DHT22;13997;48.902;12.472;2023-02-28T06:52:13;13.70;2201.60
26272;DHT22;13997;48.902;12.472;2023-02-28T06:54:39;13.60;2201.60
26272;DHT22;13997;48.902;12.472;2023-02-28T06:57:05;13.50;2201.60
26272;DHT22;13997;48.902;12.472;2023-02-28T06:59:30;13.50;2201.60
26272;DHT22;13997;48.902;12.472;2023-02-28T07:01:56;13.40;2201.60
26272;DHT22;13997;48.902;12.472;2023-02-28T07:04:25;13.30;2201.60
26272;DHT22;13997;48.902;12.472;2023-02-28T07:06:50;13.30;2201.60
26272;DHT22;13997;48.902;12.472;2023-02-28T07:09:16;13.20;2201.60
26272;DHT22;13997;48.902;12.472;2023-02-28T07:11:41;13.10;2201.60
26272;DHT22;13997;48.902;12.472;2023-02-28T07:14:08;13.10;2201.60
26272;DHT22;13997;48.902;12.472;2023-02-28T07:16:35;13.00;2201.60
26272;DHT22;13997;48.902;12.472;2023-02-28T07:19:01;13.00;2201.60
26272;DHT22;13997;48.902;12.472;2023-02-28T07:21:26;12.90;2201.60
26272;DHT22;13997;48.902;12.472;2023-02-28T07:23:52;12.90;2201.60
26272;DHT22;13997;48.902;12.472;2023-02-28T07:26:19;0.00;2201.60
26272;DHT22;13997;48.902;12.472;2023-02-28T07:28:46;0.10;2201.60
26272;DHT22;13997;48.902;12.472;2023-02-28T07:31:13;0.10;2201.60
26272;DHT22;13997;48.902;12.472;2023-02-28T07:33:40;0.20;2201.60
26272;DHT22;13997;48.902;12.472;2023-02-28T07:36:09;0.20;2201.60
26272;DHT22;13997;48.902;12.472;2023-02-28T07:38:38;0.40;2201.60
26272;DHT22;13997;48.902;12.472;2023-02-28T07:41:04;0.40;2201.60
26272;DHT22;13997;48.902;12.472;2023-02-28T07:43:31;0.50;2201.60
26272;DHT22;13997;48.902;12.472;2023-02-28T07:46:04;0.60;2201.60
26272;DHT22;13997;48.902;12.472;2023-02-28T07:48:31;0.80;2201.60
26272;DHT22;13997;48.902;12.472;2023-02-28T07:50:57;0.80;2201.60
26272;DHT22;13997;48.902;12.472;2023-02-28T07:53:23;0.80;2201.60
26272;DHT22;13997;48.902;12.472;2023-02-28T07:55:49;0.80;2201.60
26272;DHT22;13997;48.902;12.472;2023-02-28T07:58:14;0.90;2201.60
26272;DHT22;13997;48.902;12.472;2023-02-28T08:00:41;25.60;2201.60
26272;DHT22;13997;48.902;12.472;2023-02-28T08:03:11;25.60;2201.60
26272;DHT22;13997;48.902;12.472;2023-02-28T08:05:40;25.70;2201.60
26272;DHT22;13997;48.902;12.472;2023-02-28T08:08:06;25.80;2201.60
26272;DHT22;13997;48.902;12.472;2023-02-28T08:10:33;25.90;2201.60
26272;DHT22;13997;48.902;12.472;2023-02-28T08:12:58;26.20;2201.60
26272;DHT22;13997;48.902;12.472;2023-02-28T08:15:24;26.30;2201.60
26272;DHT22;13997;48.902;12.472;2023-02-28T08:17:49;26.10;2201.60
26272;DHT22;13997;48.902;12.472;2023-02-28T08:20:15;26.20;2201.60
26272;DHT22;13997;48.902;12.472;2023-02-28T08:22:40;26.30;2201.60
26272;DHT22;13997;48.902;12.472;2023-02-28T08:25:07;26.40;2201.60
26272;DHT22;13997;48.902;12.472;2023-02-28T08:27:34;26.40;2201.60
26272;DHT22;13997;48.902;12.472;2023-02-28T08:29:59;26.40;2201.60
26272;DHT22;13997;48.902;12.472;2023-02-28T08:32:25;51.20;2227.20
26272;DHT22;13997;48.902;12.472;2023-02-28T08:34:51;51.30;2227.20
26272;DHT22;13997;48.902;12.472;2023-02-28T08:37:16;51.40;2227.20
26272;DHT22;13997;48.902;12.472;2023-02-28T08:39:42;51.40;2227.20
26272;DHT22;13997;48.902;12.472;2023-02-28T08:42:08;51.40;2227.20
26272;DHT22;13997;48.902;12.472;2023-02-28T08:44:33;51.40;2227.20
26272;DHT22;13997;48.902;12.472;2023-02-28T08:47:00;51.40;2227.20
26272;DHT22;13997;48.902;12.472;2023-02-28T08:49:26;51.50;2227.20
26272;DHT22;13997;48.902;12.472;2023-02-28T08:51:51;51.60;2227.20
26272;DHT22;13997;48.902;12.472;2023-02-28T08:54:17;51.80;2227.20
26272;DHT22;13997;48.902;12.472;2023-02-28T08:56:45;51.80;2227.20
26272;DHT22;13997;48.902;12.472;2023-02-28T08:59:12;51.80;2227.20
26272;DHT22;13997;48.902;12.472;2023-02-28T09:01:38;51.70;2227.20
26272;DHT22;13997;48.902;12.472;2023-02-28T09:04:10;51.80;2227.20
26272;DHT22;13997;48.902;12.472;2023-02-28T09:06:38;51.90;2227.20
26272;DHT22;13997;48.902;12.472;2023-02-28T09:09:04;52.00;2227.20
26272;DHT22;13997;48.902;12.472;2023-02-28T09:11:34;52.10;2227.20
26272;DHT22;13997;48.902;12.472;2023-02-28T09:14:01;52.00;2227.20
26272;DHT22;13997;48.902;12.472;2023-02-28T09:16:29;52.10;2227.20
26272;DHT22;13997;48.902;12.472;2023-02-28T09:18:56;76.80;2227.20
26272;DHT22;13997;48.902;12.472;2023-02-28T09:21:21;76.80;2227.20
26272;DHT22;13997;48.902;12.472;2023-02-28T09:23:49;76.90;2227.20
26272;DHT22;13997;48.902;12.472;2023-02-28T09:26:21;77.10;2227.20
26272;DHT22;13997;48.902;12.472;2023-02-28T09:28:47;77.20;2227.20
26272;DHT22;13997;48.902;12.472;2023-02-28T09:31:15;77.20;2227.20
26272;DHT22;13997;48.902;12.472;2023-02-28T09:33:42;77.30;2227.20
26272;DHT22;13997;48.902;12.472;2023-02-28T09:36:08;77.40;2227.20
26272;DHT22;13997;48.902;12.472;2023-02-28T09:38:34;77.40;2227.20
26272;DHT22;13997;48.902;12.472;2023-02-28T09:41:02;77.40;2227.20
26272;DHT22;13997;48.902;12.472;2023-02-28T09:43:35;77.50;2227.20
26272;DHT22;13997;48.902;12.472;2023-02-28T09:46:27;77.60;2227.20
26272;DHT22;13997;48.902;12.472;2023-02-28T09:48:54;102.40;2227.20
26272;DHT22;13997;48.902;12.472;2023-02-28T09:51:34;102.50;2227.20
26272;DHT22;13997;48.902;12.472;2023-02-28T09:54:03;77.70;2227.20
26272;DHT22;13997;48.902;12.472;2023-02-28T09:56:40;77.70;2227.20
26272;DHT22;13997;48.902;12.472;2023-02-28T09:59:31;102.50;2227.20
26272;DHT22;13997;48.902;12.472;2023-02-28T10:02:39;102.60;2227.20
26272;DHT22;13997;48.902;12.472;2023-02-28T10:05:12;102.70;2227.20
26272;DHT22;13997;48.902;12.472;2023-02-28T10:07:51;102.70;2227.20
26272;DHT22;13997;48.902;12.472;2023-02-28T10:10:40;102.70;2227.20
26272;DHT22;13997;48.902;12.472;2023-02-28T10:16:03;102.80;2227.20
26272;DHT22;13997;48.902;12.472;2023-02-28T10:18:50;102.70;2227.20
26272;DHT22;13997;48.902;12.472;2023-02-28T10:21:47;103.00;2227.20
26272;DHT22;13997;48.902;12.472;2023-02-28T10:24:28;103.10;2227.20
26272;DHT22;13997;48.902;12.472;2023-02-28T10:27:00;103.20;2227.20
26272;DHT22;13997;48.902;12.472;2023-02-28T10:29:27;103.20;2227.20
26272;DHT22;13997;48.902;12.472;2023-02-28T10:31:55;103.20;2227.20
26272;DHT22;13997;48.902;12.472;2023-02-28T10:34:23;103.30;2227.20
26272;DHT22;13997;48.902;12.472;2023-02-28T10:36:50;128.00;2252.80
26272;DHT22;13997;48.902;12.472;2023-02-28T10:39:36;128.00;2252.80
26272;DHT22;13997;48.902;12.472;2023-02-28T10:42:03;128.20;2252.80
26272;DHT22;13997;48.902;12.472;2023-02-28T10:44:29;128.30;2252.80
26272;DHT22;13997;48.902;12.472;2023-02-28T10:46:55;128.30;2252.80
26272;DHT22;13997;48.902;12.472;2023-02-28T10:49:29;128.30;2252.80
26272;DHT22;13997;48.902;12.472;2023-02-28T10:51:57;128.10;2252.80
26272;DHT22;13997;48.902;12.472;2023-02-28T10:54:37;128.20;2252.80
26272;DHT22;13997;48.902;12.472;2023-02-28T10:57:30;128.30;2252.80
26272;DHT22;13997;48.902;12.472;2023-02-28T11:00:19;128.40;2252.80
26272;DHT22;13997;48.902;12.472;2023-02-28T11:02:45;128.40;2252.80
26272;DHT22;13997;48.902;12.472;2023-02-28T11:05:33;128.50;2252.80
26272;DHT22;13997;48.902;12.472;2023-02-28T11:10:30;128.60;2252.80
26272;DHT22;13997;48.902;12.472;2023-02-28T11:12:58;128.50;2252.80
26272;DHT22;13997;48.902;12.472;2023-02-28T11:15:26;128.60;2252.80
26272;DHT22;13997;48.902;12.472;2023-02-28T11:20:39;128.60;2252.80
26272;DHT22;13997;48.902;12.472;2023-02-28T11:23:11;128.70;2252.80
26272;DHT22;13997;48.902;12.472;2023-02-28T11:25:39;128.60;2252.80
26272;DHT22;13997;48.902;12.472;2023-02-28T11:28:23;128.70;2252.80
26272;DHT22;13997;48.902;12.472;2023-02-28T11:33:45;128.70;2252.80
26272;DHT22;13997;48.902;12.472;2023-02-28T11:36:15;128.90;2252.80
26272;DHT22;13997;48.902;12.472;2023-02-28T11:38:42;128.90;2252.80
26272;DHT22;13997;48.902;12.472;2023-02-28T11:41:52;128.70;2252.80
26272;DHT22;13997;48.902;12.472;2023-02-28T11:47:33;128.70;2252.80
26272;DHT22;13997;48.902;12.472;2023-02-28T11:50:22;128.70;2252.80
26272;DHT22;13997;48.902;12.472;2023-02-28T11:52:54;128.80;2252.80
26272;DHT22;13997;48.902;12.472;2023-02-28T12:00:39;153.70;2252.80
26272;DHT22;13997;48.902;12.472;2023-02-28T12:03:31;128.90;2252.80
26272;DHT22;13997;48.902;12.472;2023-02-28T12:11:48;128.90;2252.80
26272;DHT22;13997;48.902;12.472;2023-02-28T12:19:48;153.80;2252.80
26272;DHT22;13997;48.902;12.472;2023-02-28T12:27:55;153.70;2252.80
26272;DHT22;13997;48.902;12.472;2023-02-28T12:30:29;153.60;2252.80
26272;DHT22;13997;48.902;12.472;2023-02-28T12:33:06;128.90;2252.80
26272;DHT22;13997;48.902;12.472;2023-02-28T12:35:47;153.70;2252.80
26272;DHT22;13997;48.902;12.472;2023-02-28T12:41:05;153.60;2252.80
26272;DHT22;13997;48.902;12.472;2023-02-28T12:43:37;153.70;2252.80
26272;DHT22;13997;48.902;12.472;2023-02-28T12:46:10;153.60;2252.80
26272;DHT22;13997;48.902;12.472;2023-02-28T12:48:44;153.70;2252.80
26272;DHT22;13997;48.902;12.472;2023-02-28T12:51:12;153.70;2252.80
26272;DHT22;13997;48.902;12.472;2023-02-28T12:59:03;153.80;2252.80
26272;DHT22;13997;48.902;12.472;2023-02-28T13:04:52;153.90;2252.80
26272;DHT22;13997;48.902;12.472;2023-02-28T13:10:16;153.90;2252.80
26272;DHT22;13997;48.902;12.472;2023-02-28T13:12:52;153.80;2252.80
26272;DHT22;13997;48.902;12.472;2023-02-28T13:15:25;153.70;2252.80
26272;DHT22;13997;48.902;12.472;2023-02-28T13:17:56;153.80;2252.80
26272;DHT22;13997;48.902;12.472;2023-02-28T13:20:31;153.80;2252.80
26272;DHT22;13997;48.902;12.472;2023-02-28T13:22:57;153.80;2252.80
26272;DHT22;13997;48.902;12.472;2023-02-28T13:27:59;154.00;2252.80
26272;DHT22;13997;48.902;12.472;2023-02-28T13:38:51;154.00;2252.80
26272;DHT22;13997;48.902;12.472;2023-02-28T13:46:33;153.80;2252.80
26272;DHT22;13997;48.902;12.472;2023-02-28T13:49:19;153.80;2252.80
26272;DHT22;13997;48.902;12.472;2023-02-28T13:51:47;153.80;2252.80
26272;DHT22;13997;48.902;12.472;2023-02-28T14:02:57;153.60;2252.80
26272;DHT22;13997;48.902;12.472;2023-02-28T14:05:27;153.60;2252.80
26272;DHT22;13997;48.902;12.472;2023-02-28T14:07:58;128.70;2252.80
26272;DHT22;13997;48.902;12.472;2023-02-28T14:10:33;128.60;2252.80
26272;DHT22;13997;48.902;12.472;2023-02-28T14:13:10;128.50;2252.80
26272;DHT22;13997;48.902;12.472;2023-02-28T14:15:49;128.30;2252.80
26272;DHT22;13997;48.902;12.472;2023-02-28T14:20:59;128.20;2252.80
26272;DHT22;13997;48.902;12.472;2023-02-28T14:23:39;128.20;2252.80
26272;DHT22;13997;48.902;12.472;2023-02-28T14:28:55;128.50;2252.80
26272;DHT22;13997;48.902;12.472;2023-02-28T14:31:33;128.60;2252.80
26272;DHT22;13997;48.902;12.472;2023-02-28T14:36:48;128.20;2252.80
26272;DHT22;13997;48.902;12.472;2023-02-28T14:39:17;128.10;2252.80
26272;DHT22;13997;48.902;12.472;2023-02-28T14:41:45;128.10;2252.80
26272;DHT22;13997;48.902;12.472;2023-02-28T14:44:15;128.10;2252.80
26272;DHT22;13997;48.902;12.472;2023-02-28T14:46:42;128.10;2252.80
26272;DHT22;13997;48.902;12.472;2023-02-28T14:52:19;128.00;2252.80
26272;DHT22;13997;48.902;12.472;2023-02-28T14:54:45;103.30;2227.20
26272;DHT22;13997;48.902;12.472;2023-02-28T14:57:25;103.10;2227.20
26272;DHT22;13997;48.902;12.472;2023-02-28T15:02:26;103.00;2227.20
26272;DHT22;13997;48.902;12.472;2023-02-28T15:05:01;103.00;2227.20
26272;DHT22;13997;48.902;12.472;2023-02-28T15:07:27;103.00;2227.20
26272;DHT22;13997;48.902;12.472;2023-02-28T15:12:35;103.00;2227.20
26272;DHT22;13997;48.902;12.472;2023-02-28T15:15:01;102.90;2227.20
26272;DHT22;13997;48.902;12.472;2023-02-28T15:17:27;102.90;2227.20
26272;DHT22;13997;48.902;12.472;2023-02-28T15:19:53;102.90;2227.20
26272;DHT22;13997;48.902;12.472;2023-02-28T15:22:29;103.00;2227.20
26272;DHT22;13997;48.902;12.472;2023-02-28T15:24:56;103.00;2227.20
26272;DHT22;13997;48.902;12.472;2023-02-28T15:27:25;103.00;2227.20
26272;DHT22;13997;48.902;12.472;2023-02-28T15:29:55;103.00;2227.20
26272;DHT22;13997;48.902;12.472;2023-02-28T15:32:28;102.90;2227.20
26272;DHT22;13997;48.902;12.472;2023-02-28T15:34:55;102.90;2227.20
26272;DHT22;13997;48.902;12.472;2023-02-28T15:39:57;102.80;2227.20
26272;DHT22;13997;48.902;12.472;2023-02-28T15:42:30;102.80;2227.20
26272;DHT22;13997;48.902;12.472;2023-02-28T15:44:57;102.70;2227.20
26272;DHT22;13997;48.902;12.472;2023-02-28T15:47:27;102.60;2227.20
26272;DHT22;13997;48.902;12.472;2023-02-28T15:49:59;102.60;2227.20
26272;DHT22;13997;48.902;12.472;2023-02-28T15:54:57;102.50;2227.20
26272;DHT22;13997;48.902;12.472;2023-02-28T15:57:25;102.50;2227.20
26272;DHT22;13997;48.902;12.472;2023-02-28T15:59:55;102.50;2227.20
26272;DHT22;13997;48.902;12.472;2023-02-28T16:02:36;102.50;2227.20
26272;DHT22;13997;48.902;12.472;2023-02-28T16:07:31;102.50;2227.20
26272;DHT22;13997;48.902;12.472;2023-02-28T16:09:57;102.40;2227.20
26272;DHT22;13997;48.902;12.472;2023-02-28T16:12:26;102.40;2227.20
26272;DHT22;13997;48.902;12.472;2023-02-28T16:14:54;102.40;2227.20
26272;DHT22;13997;48.902;12.472;2023-02-28T16:17:23;102.40;2227.20
26272;DHT22;13997;48.902;12.472;2023-02-28T16:19:50;102.40;2227.20
26272;DHT22;13997;48.902;12.472;2023-02-28T16:22:15;77.70;2227.20
26272;DHT22;13997;48.902;12.472;2023-02-28T16:24:41;77.70;2227.20
26272;DHT22;13997;48.902;12.472;2023-02-28T16:27:29;77.70;2227.20
26272;DHT22;13997;48.902;12.472;2023-02-28T16:29:55;77.60;2227.20
26272;DHT22;13997;48.902;12.472;2023-02-28T16:32:21;77.60;2227.20
26272;DHT22;13997;48.902;12.472;2023-02-28T16:34:47;77.60;2227.20
26272;DHT22;13997;48.902;12.472;2023-02-28T16:37:14;77.60;2227.20
26272;DHT22;13997;48.902;12.472;2023-02-28T16:39:42;77.60;2227.20
26272;DHT22;13997;48.902;12.472;2023-02-28T16:42:22;77.60;2227.20
26272;DHT22;13997;48.902;12.472;2023-02-28T16:44:48;77.50;2227.20
26272;DHT22;13997;48.902;12.472;2023-02-28T16:47:14;77.50;2227.20
26272;DHT22;13997;48.902;12.472;2023-02-28T16:49:40;77.40;2227.20
26272;DHT22;13997;48.902;12.472;2023-02-28T16:52:09;77.40;2227.20
26272;DHT22;13997;48.902;12.472;2023-02-28T16:54:35;77.40;2227.20
26272;DHT22;13997;48.902;12.472;2023-02-28T16:57:01;77.30;2227.20
26272;DHT22;13997;48.902;12.472;2023-02-28T16:59:27;77.30;2227.20
26272;DHT22;13997;48.902;12.472;2023-02-28T17:01:54;77.30;2227.20
26272;DHT22;13997;48.902;12.472;2023-02-28T17:04:22;77.20;2227.20
26272;DHT22;13997;48.902;12.472;2023-02-28T17:06:48;77.20;2227.20
26272;DHT22;13997;48.902;12.472;2023-02-28T17:09:19;77.20;2227.20
26272;DHT22;13997;48.902;12.472;2023-02-28T17:11:45;77.10;2227.20
26272;DHT22;13997;48.902;12.472;2023-02-28T17:14:12;77.10;2227.20
26272;DHT22;13997;48.902;12.472;2023-02-28T17:16:38;77.10;2227.20
26272;DHT22;13997;48.902;12.472;2023-02-28T17:19:06;77.00;2227.20
26272;DHT22;13997;48.902;12.472;2023-02-28T17:21:32;76.90;2227.20